Time;durP1;ratioP1;P1;durP2;ratioP2;P2;SDS_P1;SDS_P2;PMS_P1;PMS_P2;Temp;Humidity;BMP_temperature;BMP_pressure;BME280_temperature;BME280_humidity;BME280_pressure;Samples;Min_cycle;Max_cycle;Signal;HPM_P1;HPM_P2
2022/11/07 07:11:24;;;;;;;15.98;5.30;;;11.10;99.90;;;;;;6326229;22;20036;-82
2022/11/07 13:45:44;;;;;;;15.23;3.80;;;13.20;99.90;;;;;;6189913;23;20345;-86
2022/11/07 13:52:59;;;;;;;14.77;4.10;;;13.80;99.90;;;;;;6100120;23;20443;-86
2022/11/07 14:00:23;;;;;;;17.05;4.63;;;14.10;99.90;;;;;;6100700;23;20028;-87
2022/11/07 14:03:26;;;;;;;;;;;12.90;99.90;;;;;;6029268;23;20018;-86
2022/11/07 14:10:12;;;;;;;;;;;;;;;;;;;;;
2022/11/07 14:25:21;;;;;;;13.73;4.18;;;13.70;99.90;;;;;;6362823;22;20044;-86
2022/11/07 14:27:50;;;;;;;15.45;4.82;;;13.70;99.90;;;;;;6187774;23;20020;-87
2022/11/07 14:30:39;;;;;;;15.82;4.70;;;14.50;99.90;;;;;;6212905;23;20105;-87
2022/11/07 14:33:45;;;;;;;14.38;4.30;;;14.60;99.90;;;;;;6212471;23;20133;-87
2022/11/07 14:50:21;;;;;;;17.25;4.70;;;13.50;99.90;;;;;;6370744;22;20019;-86
2022/11/07 14:53:21;;;;;;;14.43;4.38;;;14.40;99.90;;;;;;6341777;22;20020;-87
2022/11/07 14:56:22;;;;;;;14.13;4.13;;;13.50;99.90;;;;;;6342432;22;20026;-86
2022/11/07 14:58:57;;;;;;;15.80;3.78;;;12.70;99.90;;;;;;6343134;22;20019;-85
2022/11/07 15:01:58;;;;;;;14.38;4.88;;;15.00;99.90;;;;;;6368981;22;20451;-85
2022/11/07 15:04:28;;;;;;;14.70;3.90;;;13.50;99.90;;;;;;6342391;22;20018;-85
2022/11/07 15:07:21;;;;;;;15.02;4.35;;;14.70;99.90;;;;;;6340393;22;20032;-85
2022/11/07 15:09:49;;;;;;;15.70;4.13;;;13.50;99.90;;;;;;6340835;22;20456;-85
2022/11/07 15:12:50;;;;;;;14.77;4.45;;;14.20;99.90;;;;;;6341327;22;20447;-85
2022/11/07 15:15:41;;;;;;;16.45;3.83;;;13.30;99.90;;;;;;6342118;22;20018;-85
2022/11/07 15:22:24;;;;;;;15.02;3.40;;;13.40;99.90;;;;;;6343873;22;20060;-86
2022/11/07 15:25:45;;;;;;;13.10;3.75;;;13.40;99.90;;;;;;6370187;22;20349;-85
2022/11/07 15:31:52;;;;;;;13.52;3.88;;;13.50;99.90;;;;;;6369715;22;20013;-85
2022/11/07 15:34:18;;;;;;;14.18;3.50;;;14.50;99.90;;;;;;6342105;22;20018;-85
2022/11/07 15:40:45;;;;;;;15.15;3.33;;;13.40;99.90;;;;;;6369646;22;20013;-85
2022/11/07 15:43:13;;;;;;;16.85;3.78;;;13.30;99.90;;;;;;6341479;22;20026;-84
2022/11/07 15:45:40;;;;;;;12.70;3.47;;;14.90;99.90;;;;;;6370303;22;20091;-85
2022/11/07 15:55:18;;;;;;;13.50;3.63;;;13.30;99.90;;;;;;6336546;22;20014;-85
2022/11/07 15:57:46;;;;;;;14.38;3.25;;;13.00;99.90;;;;;;6310206;22;20019;-86
2022/11/07 16:00:23;;;;;;;17.13;3.72;;;13.10;99.90;;;;;;6310272;22;20486;-85
2022/11/07 16:03:03;;;;;;;13.38;3.35;;;13.30;99.90;;;;;;6338377;22;20442;-84
2022/11/07 16:05:49;;;;;;;13.82;3.08;;;14.10;99.90;;;;;;6309916;22;20089;-85
2022/11/07 16:08:18;;;;;;;15.55;3.67;;;14.20;99.90;;;;;;6310563;22;20018;-85
2022/11/07 16:13:37;;;;;;;16.65;3.50;;;12.60;99.90;;;;;;6328588;22;20391;-85
2022/11/07 16:16:10;;;;;;;17.10;4.75;;;12.40;99.90;;;;;;6338905;22;20059;-85
2022/11/07 16:25:31;;;;;;;12.90;3.60;;;12.50;99.90;;;;;;6336127;22;20019;-87
2022/11/07 16:28:43;;;;;;;10.65;3.25;;;13.10;99.90;;;;;;6336100;22;20310;-87
2022/11/07 16:31:24;;;;;;;12.95;3.25;;;12.50;99.90;;;;;;6210314;23;20086;-87
2022/11/07 16:33:55;;;;;;;13.60;3.45;;;14.10;99.90;;;;;;6186035;23;20055;-87
2022/11/07 16:36:39;;;;;;;;;;;;;;;;;;;;;
2022/11/07 16:39:30;;;;;;;14.30;4.30;;;13.40;99.90;;;;;;6100546;23;20098;-86
2022/11/07 16:41:58;;;;;;;18.50;4.30;;;14.20;99.90;;;;;;6240904;22;20030;-87
2022/11/07 16:44:24;;;;;;;13.25;3.80;;;13.20;99.90;;;;;;6396905;22;20018;-85
2022/11/07 16:47:14;;;;;;;14.38;3.38;;;14.70;99.90;;;;;;6400557;22;20416;-86
2022/11/07 16:50:26;;;;;;;13.70;4.30;;;13.20;99.90;;;;;;6400712;22;20045;-87
2022/11/07 16:57:20;;;;;;;11.68;3.30;;;14.00;99.90;;;;;;6418420;22;20018;-86
2022/11/07 17:00:07;;;;;;;15.00;3.50;;;13.10;99.90;;;;;;6180089;22;20080;-86
2022/11/07 17:05:26;;;;;;;;;;;;;;;;;;;;;
2022/11/07 17:14:21;;;;;;;;;;;;;;;;;;;;;
2022/11/07 17:17:52;;;;;;;13.80;4.10;;;14.50;99.90;;;;;;6367137;22;20068;-87
2022/11/07 17:20:20;;;;;;;15.27;3.60;;;12.30;99.90;;;;;;6341065;22;20025;-87
2022/11/07 17:22:46;;;;;;;15.05;3.92;;;14.00;99.90;;;;;;6340831;22;20010;-86
2022/11/07 17:25:12;;;;;;;13.52;3.75;;;14.00;99.90;;;;;;6341264;22;20014;-87
2022/11/07 17:27:42;;;;;;;11.82;3.58;;;12.90;99.90;;;;;;6340217;22;20014;-86
2022/11/07 17:33:22;;;;;;;15.93;4.00;;;12.10;99.90;;;;;;6341657;22;20018;-85
2022/11/07 17:35:52;;;;;;;14.68;4.78;;;14.20;99.90;;;;;;6341510;22;20066;-86
2022/11/07 17:41:28;;;;;;;;;;;;;;;;;;;;;
2022/11/07 17:44:24;;;;;;;14.65;4.32;;;13.70;99.90;;;;;;6342519;22;20487;-86
2022/11/07 17:47:04;;;;;;;16.27;4.38;;;12.10;99.90;;;;;;6369994;22;20018;-87
2022/11/07 17:49:38;;;;;;;17.73;4.68;;;12.50;99.90;;;;;;6368318;22;20013;-86
2022/11/07 17:59:48;;;;;;;16.85;4.50;;;12.50;99.90;;;;;;6369748;22;20010;-88
2022/11/07 18:02:32;;;;;;;18.92;4.40;;;12.60;99.90;;;;;;6342683;22;20045;-87
2022/11/07 18:11:46;;;;;;;16.08;5.30;;;12.30;99.90;;;;;;6216141;23;20105;-87
2022/11/07 18:14:31;;;;;;;17.50;4.63;;;11.80;99.90;;;;;;6190162;23;20021;-87
2022/11/07 18:17:05;;;;;;;17.17;4.60;;;12.60;99.90;;;;;;6217837;23;20071;-87
2022/11/07 18:23:17;;;;;;;16.38;4.63;;;12.60;99.90;;;;;;6302037;22;20056;-85
2022/11/07 18:25:43;;;;;;;16.00;4.80;;;13.50;99.90;;;;;;6365183;22;20477;-87
2022/11/07 18:28:37;;;;;;;15.38;4.50;;;14.10;99.90;;;;;;6342532;22;20076;-86
2022/11/07 18:31:24;;;;;;;13.88;3.90;;;12.10;99.90;;;;;;6297542;22;20014;-87
2022/11/07 18:33:58;;;;;;;17.40;4.55;;;12.60;99.90;;;;;;6372498;22;20017;-85
2022/11/07 18:36:42;;;;;;;14.45;5.57;;;13.90;99.90;;;;;;6343285;22;20055;-85
2022/11/07 18:39:23;;;;;;;19.05;4.97;;;13.60;99.90;;;;;;6342224;22;20052;-87
2022/11/07 18:41:51;;;;;;;13.93;4.38;;;14.00;99.90;;;;;;6343594;22;20011;-86
2022/11/07 18:44:20;;;;;;;13.30;3.97;;;12.00;99.90;;;;;;6371353;22;20124;-86
2022/11/07 18:46:46;;;;;;;14.85;4.13;;;12.90;99.90;;;;;;6371188;22;20019;-86
2022/11/07 18:49:27;;;;;;;14.45;4.50;;;12.40;99.90;;;;;;6342636;22;20010;-86
2022/11/07 18:51:54;;;;;;;17.45;4.85;;;12.60;99.90;;;;;;6370381;22;20322;-86
2022/11/07 18:54:20;;;;;;;21.77;8.75;;;14.10;99.90;;;;;;6343663;22;20045;-87
2022/11/07 18:56:49;;;;;;;20.60;6.40;;;12.10;99.90;;;;;;6370369;22;20014;-86
2022/11/07 18:59:17;;;;;;;12.60;4.13;;;12.80;99.90;;;;;;6346253;22;20014;-86
2022/11/07 19:01:43;;;;;;;14.43;4.05;;;12.60;99.90;;;;;;6371560;22;20037;-86
2022/11/07 19:04:18;;;;;;;14.15;4.28;;;12.50;99.90;;;;;;6371680;22;20433;-86
2022/11/07 19:07:01;;;;;;;16.90;4.38;;;12.00;99.90;;;;;;6373659;22;20022;-86
2022/11/07 19:09:36;;;;;;;15.07;4.22;;;13.80;99.90;;;;;;6370881;22;20014;-86
2022/11/07 19:12:17;;;;;;;15.43;4.30;;;12.60;99.90;;;;;;6343370;22;20025;-86
2022/11/07 19:15:17;;;;;;;14.35;4.65;;;12.80;99.90;;;;;;6342049;22;20115;-86
2022/11/07 19:17:42;;;;;;;15.93;4.97;;;12.80;99.90;;;;;;6370111;22;20345;-86
2022/11/07 19:20:09;;;;;;;12.80;4.05;;;14.20;99.90;;;;;;6369671;22;20002;-86
2022/11/07 19:22:44;;;;;;;11.43;3.88;;;12.80;99.90;;;;;;6370448;22;20322;-86
2022/11/07 19:25:25;;;;;;;17.63;4.25;;;14.30;99.90;;;;;;6342806;22;20010;-86
2022/11/07 19:27:50;;;;;;;12.02;3.10;;;13.90;99.90;;;;;;6368970;22;20091;-86
2022/11/07 19:30:16;;;;;;;15.25;3.97;;;13.70;99.90;;;;;;6342056;22;20014;-86
2022/11/07 19:32:42;;;;;;;14.43;4.10;;;12.80;99.90;;;;;;6342631;22;20021;-86
2022/11/07 19:35:10;;;;;;;12.93;4.10;;;14.00;99.90;;;;;;6341860;22;20011;-86
2022/11/07 19:37:36;;;;;;;16.27;4.30;;;12.90;99.90;;;;;;6349736;22;20021;-87
2022/11/07 19:40:16;;;;;;;12.38;4.00;;;14.40;99.90;;;;;;6347422;22;20036;-87
2022/11/07 19:42:42;;;;;;;14.20;3.90;;;12.90;99.90;;;;;;6346845;22;20021;-87
2022/11/07 19:45:17;;;;;;;14.05;5.03;;;14.50;99.90;;;;;;6371680;22;20014;-87
2022/11/07 19:47:53;;;;;;;15.73;4.03;;;13.10;99.90;;;;;;6346055;22;20442;-86
2022/11/07 19:50:29;;;;;;;16.25;7.50;;;14.30;99.90;;;;;;6344769;22;20068;-84
2022/11/07 19:52:54;;;;;;;14.32;3.30;;;14.00;99.90;;;;;;6346476;22;20040;-84
2022/11/07 19:55:20;;;;;;;10.98;3.75;;;13.10;99.90;;;;;;6374409;22;20010;-85
2022/11/07 19:58:09;;;;;;;14.93;4.90;;;13.10;99.90;;;;;;6374999;22;20014;-85
2022/11/07 20:00:34;;;;;;;12.85;3.88;;;13.10;99.90;;;;;;6346816;22;20338;-85
2022/11/07 20:03:25;;;;;;;27.67;16.23;;;12.90;99.90;;;;;;6372680;22;20015;-85
2022/11/07 20:05:51;;;;;;;13.77;3.65;;;13.20;99.90;;;;;;6373461;22;20461;-85
2022/11/07 20:14:47;;;;;;;14.80;4.85;;;12.50;99.90;;;;;;6374206;22;20014;-85
2022/11/07 20:17:21;;;;;;;11.93;4.10;;;14.00;99.90;;;;;;6370490;22;20015;-85
2022/11/07 20:23:32;;;;;;;12.90;3.17;;;13.20;99.90;;;;;;6370414;22;20017;-85
2022/11/07 20:25:58;;;;;;;12.95;3.38;;;12.40;99.90;;;;;;6345337;22;20036;-85
2022/11/07 20:28:24;;;;;;;13.95;4.10;;;14.30;99.90;;;;;;6345382;22;20018;-85
2022/11/07 20:30:54;;;;;;;13.85;3.78;;;14.10;99.90;;;;;;6372721;22;20014;-85
2022/11/07 20:33:22;;;;;;;13.98;3.60;;;13.50;99.90;;;;;;6372952;22;20015;-84
2022/11/07 20:36:02;;;;;;;14.75;3.83;;;13.20;99.90;;;;;;6344349;22;20006;-84
2022/11/07 20:38:30;;;;;;;14.70;5.95;;;14.60;99.90;;;;;;6369536;22;20014;-85
2022/11/07 20:41:31;;;;;;;14.77;4.15;;;13.30;99.90;;;;;;6344141;22;20085;-86
2022/11/07 20:44:21;;;;;;;13.65;3.58;;;13.20;99.90;;;;;;6345830;22;20029;-86
2022/11/07 20:46:56;;;;;;;12.27;3.97;;;12.70;99.90;;;;;;6344264;22;20010;-86
2022/11/07 20:53:49;;;;;;;13.17;4.30;;;13.20;99.90;;;;;;6368381;22;20014;-86
2022/11/07 20:58:54;;;;;;;11.45;3.10;;;13.20;99.90;;;;;;6359648;22;20033;-86
2022/11/07 21:01:36;;;;;;;11.70;3.10;;;13.30;99.90;;;;;;6366976;22;20028;-86
2022/11/07 21:04:23;;;;;;;12.80;4.10;;;13.10;99.90;;;;;;6370658;22;20349;-85
2022/11/07 21:06:58;;;;;;;11.50;4.03;;;13.10;99.90;;;;;;6341505;22;20022;-85
2022/11/07 21:19:50;;;;;;;12.20;3.58;;;13.10;99.90;;;;;;6372276;22;20111;-86
2022/11/07 21:22:17;;;;;;;12.95;3.72;;;13.90;99.90;;;;;;6344076;22;20025;-86
2022/11/07 21:25:10;;;;;;;14.23;3.50;;;13.10;99.90;;;;;;6344756;22;20010;-85
2022/11/07 21:27:57;;;;;;;14.18;4.15;;;13.00;99.90;;;;;;6343033;22;20044;-86
2022/11/07 21:30:22;;;;;;;15.43;4.40;;;12.40;99.90;;;;;;6319570;22;20018;-85
2022/11/07 21:33:05;;;;;;;15.35;4.20;;;14.00;99.90;;;;;;6344796;22;20379;-86
2022/11/07 21:35:49;;;;;;;11.73;3.67;;;14.00;99.90;;;;;;6372948;22;20011;-86
2022/11/07 21:38:14;;;;;;;12.43;3.92;;;12.00;99.90;;;;;;6344850;22;20041;-86
2022/11/07 21:40:58;;;;;;;13.32;3.90;;;14.10;99.90;;;;;;6346646;22;20014;-87
2022/11/07 21:43:36;;;;;;;16.77;4.05;;;14.10;99.90;;;;;;6373086;22;20022;-86
2022/11/07 21:46:07;;;;;;;11.20;3.47;;;13.60;99.90;;;;;;6347304;22;20379;-86
2022/11/07 21:48:36;;;;;;;13.68;4.22;;;12.70;99.90;;;;;;6345002;22;20075;-86
2022/11/07 21:51:13;;;;;;;12.88;3.83;;;14.00;99.90;;;;;;6345886;22;20029;-86
2022/11/07 21:53:43;;;;;;;11.50;3.60;;;12.60;99.90;;;;;;6373563;22;20510;-86
2022/11/07 21:56:15;;;;;;;14.45;3.67;;;12.60;99.90;;;;;;6373919;22;20045;-86
2022/11/07 21:58:41;;;;;;;13.85;3.92;;;12.60;99.90;;;;;;6345651;22;20026;-87
2022/11/07 22:01:07;;;;;;;13.65;4.22;;;11.80;99.90;;;;;;6345492;22;20010;-87
2022/11/07 22:03:54;;;;;;;10.77;3.90;;;12.60;99.90;;;;;;6372110;22;20018;-86
2022/11/07 22:06:21;;;;;;;13.18;4.75;;;12.40;99.90;;;;;;6346252;22;20342;-86
2022/11/07 22:08:55;;;;;;;14.40;4.60;;;12.50;99.90;;;;;;6373473;22;20330;-86
2022/11/07 22:11:25;;;;;;;13.18;3.78;;;12.50;99.90;;;;;;6345440;22;20049;-86
2022/11/07 22:14:03;;;;;;;14.07;4.03;;;12.50;99.90;;;;;;6343275;22;20510;-86
2022/11/07 22:16:33;;;;;;;13.38;4.05;;;12.60;99.90;;;;;;6321332;22;20079;-85
2022/11/07 22:19:06;;;;;;;10.38;3.63;;;12.80;99.90;;;;;;6340779;22;20014;-86
2022/11/07 22:21:50;;;;;;;12.48;4.22;;;12.50;99.90;;;;;;6337550;22;20178;-87
2022/11/07 22:24:19;;;;;;;11.63;4.05;;;12.50;99.90;;;;;;6337370;22;20014;-86
2022/11/07 22:30:00;;;;;;;13.25;3.90;;;12.70;99.90;;;;;;6370452;22;20038;-87
2022/11/07 22:33:32;;;;;;;16.10;4.65;;;12.50;99.90;;;;;;6342060;22;20403;-87
2022/11/07 22:36:23;;;;;;;16.17;4.45;;;12.70;99.90;;;;;;6367696;22;20102;-89
2022/11/07 22:41:26;;;;;;;14.40;3.90;;;12.70;99.90;;;;;;6366081;22;20022;-90
2022/11/07 22:43:56;;;;;;;14.20;3.45;;;12.80;99.90;;;;;;6343773;22;20058;-91
2022/11/07 22:50:53;;;;;;;13.88;4.15;;;12.20;99.90;;;;;;6377189;22;20021;-90
2022/11/07 22:53:19;;;;;;;15.88;3.45;;;12.90;99.90;;;;;;6370682;22;20018;-90
2022/11/07 22:56:13;;;;;;;13.52;3.50;;;12.90;99.90;;;;;;6342942;22;20469;-90
2022/11/07 22:58:51;;;;;;;10.90;3.13;;;12.80;99.90;;;;;;6342202;22;20014;-90
2022/11/07 23:01:47;;;;;;;15.13;4.75;;;12.90;99.90;;;;;;6342419;22;20022;-90
2022/11/07 23:04:18;;;;;;;8.98;2.63;;;12.80;99.90;;;;;;6371316;22;20067;-90
2022/11/07 23:06:56;;;;;;;11.95;3.40;;;13.00;99.90;;;;;;6369873;22;20368;-91
2022/11/07 23:13:32;;;;;;;13.63;3.75;;;13.00;99.90;;;;;;6370014;22;20013;-90
2022/11/07 23:15:58;;;;;;;14.63;3.55;;;12.90;99.90;;;;;;6370662;22;20014;-90
2022/11/07 23:18:59;;;;;;;13.30;3.20;;;12.90;99.90;;;;;;6370352;22;20010;-90
2022/11/07 23:25:33;;;;;;;13.23;3.20;;;13.00;99.90;;;;;;6365085;22;20030;-90
2022/11/07 23:28:08;;;;;;;16.42;3.60;;;12.80;99.90;;;;;;6369640;22;20026;-90
2022/11/07 23:30:56;;;;;;;13.18;3.63;;;12.20;99.90;;;;;;6342702;22;20010;-90
2022/11/07 23:33:27;;;;;;;15.27;3.80;;;13.00;99.90;;;;;;6369024;22;20029;-91
2022/11/07 23:36:24;;;;;;;11.93;3.30;;;12.90;99.90;;;;;;6370322;22;20060;-90
2022/11/07 23:38:50;;;;;;;12.15;3.28;;;12.90;99.90;;;;;;6374723;22;20079;-90
2022/11/07 23:41:18;;;;;;;11.30;3.88;;;12.90;99.90;;;;;;6369612;22;20372;-90
2022/11/07 23:43:46;;;;;;;10.65;3.50;;;12.90;99.90;;;;;;6341944;22;20445;-91
2022/11/07 23:52:11;;;;;;;14.32;4.20;;;12.30;99.90;;;;;;6341752;22;20509;-91
